sensor_id;sensor_type;location;lat;lon;timestamp;pressure;altitude;pressure_sealevel;temperature;humidity
64644;BME280;51056;50.330;7.914;2023-06-26T00:02:41;100516.75;;;18.71;76.66
64644;BME280;51056;50.330;7.914;2023-06-26T00:05:44;100504.88;;;18.65;76.73
64644;BME280;51056;50.330;7.914;2023-06-26T00:08:47;100509.91;;;18.68;77.14
64644;BME280;51056;50.330;7.914;2023-06-26T00:11:51;100500.25;;;18.57;77.14
64644;BME280;51056;50.330;7.914;2023-06-26T00:14:55;100510.16;;;18.65;77.16
64644;BME280;51056;50.330;7.914;2023-06-26T00:17:58;100505.94;;;18.74;77.32
64644;BME280;51056;50.330;7.914;2023-06-26T00:21:02;100501.25;;;18.66;76.95
64644;BME280;51056;50.330;7.914;2023-06-26T00:24:07;100511.41;;;18.61;76.79
64644;BME280;51056;50.330;7.914;2023-06-26T00:27:11;100501.78;;;18.60;76.98
64644;BME280;51056;50.330;7.914;2023-06-26T00:30:14;100499.75;;;18.43;77.79
64644;BME280;51056;50.330;7.914;2023-06-26T00:33:18;100488.59;;;18.39;78.04
64644;BME280;51056;50.330;7.914;2023-06-26T00:36:22;100487.44;;;18.32;78.28
64644;BME280;51056;50.330;7.914;2023-06-26T00:39:27;100497.56;;;18.27;78.07
64644;BME280;51056;50.330;7.914;2023-06-26T00:42:31;100497.84;;;18.24;78.29
64644;BME280;51056;50.330;7.914;2023-06-26T00:45:35;100494.16;;;18.15;78.15
64644;BME280;51056;50.330;7.914;2023-06-26T00:48:41;100498.75;;;18.13;78.14
64644;BME280;51056;50.330;7.914;2023-06-26T00:51:45;100500.34;;;18.04;78.54
64644;BME280;51056;50.330;7.914;2023-06-26T00:54:48;100496.09;;;18.13;79.05
64644;BME280;51056;50.330;7.914;2023-06-26T00:57:55;100493.41;;;18.03;78.82
64644;BME280;51056;50.330;7.914;2023-06-26T01:00:59;100486.88;;;18.07;78.96
64644;BME280;51056;50.330;7.914;2023-06-26T01:04:03;100486.22;;;18.15;78.24
64644;BME280;51056;50.330;7.914;2023-06-26T01:07:08;100484.53;;;18.14;78.48
64644;BME280;51056;50.330;7.914;2023-06-26T01:10:12;100490.59;;;18.05;78.43
64644;BME280;51056;50.330;7.914;2023-06-26T01:13:16;100486.34;;;17.93;79.10
64644;BME280;51056;50.330;7.914;2023-06-26T01:16:21;100485.69;;;17.79;79.44
64644;BME280;51056;50.330;7.914;2023-06-26T01:19:28;100489.06;;;17.70;79.68
64644;BME280;51056;50.330;7.914;2023-06-26T01:26:21;100481.53;;;17.65;79.72
64644;BME280;51056;50.330;7.914;2023-06-26T01:29:25;100490.78;;;17.60;80.11
64644;BME280;51056;50.330;7.914;2023-06-26T01:32:30;100472.53;;;17.57;79.66
64644;BME280;51056;50.330;7.914;2023-06-26T01:35:34;100475.94;;;17.48;79.71
64644;BME280;51056;50.330;7.914;2023-06-26T01:38:41;100477.25;;;17.53;79.82
64644;BME280;51056;50.330;7.914;2023-06-26T01:41:45;100477.38;;;17.52;79.92
64644;BME280;51056;50.330;7.914;2023-06-26T01:44:49;100473.50;;;17.56;80.10
64644;BME280;51056;50.330;7.914;2023-06-26T01:47:57;100470.97;;;17.54;79.67
64644;BME280;51056;50.330;7.914;2023-06-26T01:51:03;100469.38;;;17.63;79.14
64644;BME280;51056;50.330;7.914;2023-06-26T01:54:13;100474.00;;;17.50;79.54
64644;BME280;51056;50.330;7.914;2023-06-26T01:57:20;100475.09;;;17.47;79.79
64644;BME280;51056;50.330;7.914;2023-06-26T02:00:26;100475.69;;;17.51;79.61
64644;BME280;51056;50.330;7.914;2023-06-26T02:03:29;100469.47;;;17.40;79.86
64644;BME280;51056;50.330;7.914;2023-06-26T02:06:33;100464.94;;;17.31;80.02
64644;BME280;51056;50.330;7.914;2023-06-26T02:09:36;100467.50;;;17.22;80.30
64644;BME280;51056;50.330;7.914;2023-06-26T02:12:41;100461.56;;;17.29;80.22
64644;BME280;51056;50.330;7.914;2023-06-26T02:15:44;100466.75;;;17.19;80.37
64644;BME280;51056;50.330;7.914;2023-06-26T02:18:47;100472.56;;;17.13;80.88
64644;BME280;51056;50.330;7.914;2023-06-26T02:21:50;100476.47;;;17.30;79.88
64644;BME280;51056;50.330;7.914;2023-06-26T02:24:54;100478.03;;;17.33;78.82
64644;BME280;51056;50.330;7.914;2023-06-26T02:27:57;100476.00;;;17.25;79.13
64644;BME280;51056;50.330;7.914;2023-06-26T02:31:00;100473.41;;;17.14;79.98
64644;BME280;51056;50.330;7.914;2023-06-26T02:34:04;100477.47;;;17.07;80.47
64644;BME280;51056;50.330;7.914;2023-06-26T02:37:10;100474.38;;;17.02;80.54
64644;BME280;51056;50.330;7.914;2023-06-26T02:40:13;100472.00;;;16.99;80.97
64644;BME280;51056;50.330;7.914;2023-06-26T02:43:17;100471.25;;;16.96;80.81
64644;BME280;51056;50.330;7.914;2023-06-26T02:46:21;100474.03;;;16.95;80.85
64644;BME280;51056;50.330;7.914;2023-06-26T02:49:25;100471.75;;;16.90;80.98
64644;BME280;51056;50.330;7.914;2023-06-26T02:52:29;100474.88;;;16.95;81.21
64644;BME280;51056;50.330;7.914;2023-06-26T02:55:34;100473.91;;;16.96;80.64
64644;BME280;51056;50.330;7.914;2023-06-26T02:58:38;100476.91;;;16.92;80.77
64644;BME280;51056;50.330;7.914;2023-06-26T03:01:41;100474.41;;;16.79;80.88
64644;BME280;51056;50.330;7.914;2023-06-26T03:04:45;100472.22;;;16.73;81.00
64644;BME280;51056;50.330;7.914;2023-06-26T03:07:50;100468.88;;;16.60;81.70
64644;BME280;51056;50.330;7.914;2023-06-26T03:10:54;100480.88;;;16.64;81.65
64644;BME280;51056;50.330;7.914;2023-06-26T03:13:57;100469.47;;;16.63;81.68
64644;BME280;51056;50.330;7.914;2023-06-26T03:17:02;100471.50;;;16.48;82.31
64644;BME280;51056;50.330;7.914;2023-06-26T03:20:09;100475.94;;;16.48;82.42
64644;BME280;51056;50.330;7.914;2023-06-26T03:23:24;100462.59;;;16.49;82.23
64644;BME280;51056;50.330;7.914;2023-06-26T03:26:28;100463.34;;;16.40;82.31
64644;BME280;51056;50.330;7.914;2023-06-26T03:29:33;100466.69;;;16.31;82.46
64644;BME280;51056;50.330;7.914;2023-06-26T03:32:36;100464.53;;;16.36;82.21
64644;BME280;51056;50.330;7.914;2023-06-26T03:35:40;100470.19;;;16.32;82.37
64644;BME280;51056;50.330;7.914;2023-06-26T03:38:47;100460.69;;;16.29;82.43
64644;BME280;51056;50.330;7.914;2023-06-26T03:41:50;100465.22;;;16.16;83.40
64644;BME280;51056;50.330;7.914;2023-06-26T03:44:56;100467.38;;;16.11;83.88
64644;BME280;51056;50.330;7.914;2023-06-26T03:47:59;100460.66;;;16.07;84.62
64644;BME280;51056;50.330;7.914;2023-06-26T03:51:02;100468.34;;;16.10;84.63
64644;BME280;51056;50.330;7.914;2023-06-26T03:54:06;100470.84;;;16.00;84.95
64644;BME280;51056;50.330;7.914;2023-06-26T03:57:10;100464.03;;;16.09;84.62
64644;BME280;51056;50.330;7.914;2023-06-26T04:00:13;100462.00;;;16.23;84.30
64644;BME280;51056;50.330;7.914;2023-06-26T04:03:20;100471.75;;;16.34;83.27
64644;BME280;51056;50.330;7.914;2023-06-26T04:06:24;100464.91;;;16.32;83.54
64644;BME280;51056;50.330;7.914;2023-06-26T04:09:31;100468.09;;;16.24;83.66
64644;BME280;51056;50.330;7.914;2023-06-26T04:12:44;100471.25;;;16.29;83.67
64644;BME280;51056;50.330;7.914;2023-06-26T04:15:48;100474.47;;;16.21;84.02
64644;BME280;51056;50.330;7.914;2023-06-26T04:19:02;100477.22;;;16.20;84.05
64644;BME280;51056;50.330;7.914;2023-06-26T04:22:14;100471.00;;;16.21;83.99
64644;BME280;51056;50.330;7.914;2023-06-26T04:25:25;100470.03;;;16.33;83.82
64644;BME280;51056;50.330;7.914;2023-06-26T04:28:57;100465.72;;;16.32;83.83
64644;BME280;51056;50.330;7.914;2023-06-26T04:32:06;100466.94;;;16.28;84.35
64644;BME280;51056;50.330;7.914;2023-06-26T04:35:10;100469.06;;;16.23;84.45
64644;BME280;51056;50.330;7.914;2023-06-26T04:38:13;100465.00;;;16.19;84.67
64644;BME280;51056;50.330;7.914;2023-06-26T04:41:16;100468.47;;;16.08;85.04
64644;BME280;51056;50.330;7.914;2023-06-26T04:44:20;100471.84;;;16.21;85.02
64644;BME280;51056;50.330;7.914;2023-06-26T04:47:23;100479.78;;;16.44;83.77
64644;BME280;51056;50.330;7.914;2023-06-26T04:50:27;100456.13;;;16.65;82.38
64644;BME280;51056;50.330;7.914;2023-06-26T04:53:31;100471.41;;;16.84;81.72
64644;BME280;51056;50.330;7.914;2023-06-26T04:56:35;100463.59;;;16.93;81.15
64644;BME280;51056;50.330;7.914;2023-06-26T04:59:38;100463.63;;;16.82;81.95
64644;BME280;51056;50.330;7.914;2023-06-26T05:02:41;100466.94;;;16.62;83.17
64644;BME280;51056;50.330;7.914;2023-06-26T05:05:45;100461.53;;;16.74;83.25
64644;BME280;51056;50.330;7.914;2023-06-26T05:08:48;100462.41;;;16.86;82.81
64644;BME280;51056;50.330;7.914;2023-06-26T05:11:51;100471.50;;;16.93;82.33
64644;BME280;51056;50.330;7.914;2023-06-26T05:14:55;100458.78;;;16.99;82.26
64644;BME280;51056;50.330;7.914;2023-06-26T05:17:58;100462.59;;;17.17;81.70
64644;BME280;51056;50.330;7.914;2023-06-26T05:21:01;100462.78;;;17.36;80.68
64644;BME280;51056;50.330;7.914;2023-06-26T05:24:05;100468.41;;;17.43;80.05
64644;BME280;51056;50.330;7.914;2023-06-26T05:27:10;100477.41;;;17.40;80.92
64644;BME280;51056;50.330;7.914;2023-06-26T05:30:13;100465.91;;;17.62;80.04
64644;BME280;51056;50.330;7.914;2023-06-26T05:33:18;100476.78;;;17.80;78.51
64644;BME280;51056;50.330;7.914;2023-06-26T05:36:23;100479.31;;;17.82;79.32
64644;BME280;51056;50.330;7.914;2023-06-26T05:39:27;100478.66;;;17.89;79.41
64644;BME280;51056;50.330;7.914;2023-06-26T05:42:30;100475.75;;;17.93;79.36
64644;BME280;51056;50.330;7.914;2023-06-26T05:45:33;100464.66;;;17.99;79.85
64644;BME280;51056;50.330;7.914;2023-06-26T05:48:37;100472.97;;;18.15;79.00
64644;BME280;51056;50.330;7.914;2023-06-26T05:51:40;100464.97;;;18.26;77.95
64644;BME280;51056;50.330;7.914;2023-06-26T05:54:44;100453.81;;;18.23;78.10
64644;BME280;51056;50.330;7.914;2023-06-26T05:57:47;100459.16;;;18.32;77.60
64644;BME280;51056;50.330;7.914;2023-06-26T06:00:51;100456.28;;;18.45;77.22
64644;BME280;51056;50.330;7.914;2023-06-26T06:03:54;100457.16;;;18.55;77.95
64644;BME280;51056;50.330;7.914;2023-06-26T06:06:57;100454.53;;;18.55;78.11
64644;BME280;51056;50.330;7.914;2023-06-26T06:10:03;100455.91;;;18.59;78.94
64644;BME280;51056;50.330;7.914;2023-06-26T06:13:06;100455.59;;;18.74;78.35
64644;BME280;51056;50.330;7.914;2023-06-26T06:16:10;100464.59;;;18.92;78.49
64644;BME280;51056;50.330;7.914;2023-06-26T06:19:13;100452.59;;;18.98;77.50
64644;BME280;51056;50.330;7.914;2023-06-26T06:22:16;100461.53;;;19.07;76.50
64644;BME280;51056;50.330;7.914;2023-06-26T06:25:20;100461.56;;;19.16;75.99
64644;BME280;51056;50.330;7.914;2023-06-26T06:28:24;100467.44;;;19.29;76.09
64644;BME280;51056;50.330;7.914;2023-06-26T06:31:27;100465.06;;;19.46;75.57
64644;BME280;51056;50.330;7.914;2023-06-26T06:34:33;100475.94;;;19.52;74.66
64644;BME280;51056;50.330;7.914;2023-06-26T06:37:37;100473.34;;;19.62;74.76
64644;BME280;51056;50.330;7.914;2023-06-26T06:40:40;100477.25;;;19.78;73.16
64644;BME280;51056;50.330;7.914;2023-06-26T06:43:45;100483.38;;;19.97;73.27
64644;BME280;51056;50.330;7.914;2023-06-26T06:46:48;100481.66;;;20.16;72.96
64644;BME280;51056;50.330;7.914;2023-06-26T06:49:51;100472.13;;;20.33;72.72
64644;BME280;51056;50.330;7.914;2023-06-26T06:52:55;100479.63;;;20.47;72.37
64644;BME280;51056;50.330;7.914;2023-06-26T06:55:58;100483.50;;;20.62;71.32
64644;BME280;51056;50.330;7.914;2023-06-26T06:59:01;100476.19;;;20.74;71.44
64644;BME280;51056;50.330;7.914;2023-06-26T07:02:05;100463.22;;;20.89;71.48
64644;BME280;51056;50.330;7.914;2023-06-26T07:05:09;100465.00;;;20.98;70.32
64644;BME280;51056;50.330;7.914;2023-06-26T07:08:13;100469.91;;;21.03;69.45
64644;BME280;51056;50.330;7.914;2023-06-26T07:11:17;100470.97;;;21.10;70.14
64644;BME280;51056;50.330;7.914;2023-06-26T07:14:20;100470.59;;;21.23;69.91
64644;BME280;51056;50.330;7.914;2023-06-26T07:17:24;100470.13;;;21.27;69.09
64644;BME280;51056;50.330;7.914;2023-06-26T07:20:27;100476.97;;;21.30;69.31
64644;BME280;51056;50.330;7.914;2023-06-26T07:23:31;100480.63;;;21.29;69.12
64644;BME280;51056;50.330;7.914;2023-06-26T07:26:35;100483.41;;;21.37;69.16
64644;BME280;51056;50.330;7.914;2023-06-26T07:29:38;100480.81;;;21.45;69.47
64644;BME280;51056;50.330;7.914;2023-06-26T07:32:44;100479.31;;;21.61;68.49
64644;BME280;51056;50.330;7.914;2023-06-26T07:35:48;100477.75;;;21.76;65.27
64644;BME280;51056;50.330;7.914;2023-06-26T07:38:51;100495.25;;;21.96;67.60
64644;BME280;51056;50.330;7.914;2023-06-26T07:41:59;100493.31;;;22.24;62.72
64644;BME280;51056;50.330;7.914;2023-06-26T07:45:28;100487.72;;;22.70;56.20
64644;BME280;51056;50.330;7.914;2023-06-26T07:48:32;100494.97;;;22.86;57.51
64644;BME280;51056;50.330;7.914;2023-06-26T07:51:36;100499.56;;;23.10;55.78
64644;BME280;51056;50.330;7.914;2023-06-26T07:54:39;100503.75;;;23.12;55.51
64644;BME280;51056;50.330;7.914;2023-06-26T07:57:42;100499.88;;;22.98;55.07
64644;BME280;51056;50.330;7.914;2023-06-26T08:00:48;100497.66;;;22.94;55.54
64644;BME280;51056;50.330;7.914;2023-06-26T08:03:55;100508.97;;;22.88;54.80
64644;BME280;51056;50.330;7.914;2023-06-26T08:06:59;100501.94;;;22.79;54.32
64644;BME280;51056;50.330;7.914;2023-06-26T08:10:04;100510.59;;;22.81;54.12
64644;BME280;51056;50.330;7.914;2023-06-26T08:13:08;100504.53;;;22.96;53.92
64644;BME280;51056;50.330;7.914;2023-06-26T08:16:13;100509.56;;;23.08;51.08
64644;BME280;51056;50.330;7.914;2023-06-26T08:19:17;100500.59;;;23.17;52.64
64644;BME280;51056;50.330;7.914;2023-06-26T08:22:21;100499.97;;;23.23;52.46
64644;BME280;51056;50.330;7.914;2023-06-26T08:25:27;100503.78;;;23.20;52.39
64644;BME280;51056;50.330;7.914;2023-06-26T08:28:32;100498.72;;;23.09;53.00
64644;BME280;51056;50.330;7.914;2023-06-26T08:31:42;100498.91;;;23.08;52.38
64644;BME280;51056;50.330;7.914;2023-06-26T08:34:45;100508.75;;;23.15;52.79
64644;BME280;51056;50.330;7.914;2023-06-26T08:37:48;100522.41;;;23.12;53.74
64644;BME280;51056;50.330;7.914;2023-06-26T08:40:52;100519.41;;;23.15;53.46
64644;BME280;51056;50.330;7.914;2023-06-26T08:43:55;100507.22;;;23.05;53.59
64644;BME280;51056;50.330;7.914;2023-06-26T08:47:03;100499.19;;;22.96;54.50
64644;BME280;51056;50.330;7.914;2023-06-26T08:50:14;100510.88;;;23.04;54.54
64644;BME280;51056;50.330;7.914;2023-06-26T08:53:21;100524.13;;;23.21;54.39
64644;BME280;51056;50.330;7.914;2023-06-26T08:56:36;100510.44;;;23.25;54.69
64644;BME280;51056;50.330;7.914;2023-06-26T08:59:40;100515.31;;;23.37;54.50
64644;BME280;51056;50.330;7.914;2023-06-26T09:02:44;100510.34;;;23.42;54.05
64644;BME280;51056;50.330;7.914;2023-06-26T09:05:47;100508.16;;;23.54;53.71
64644;BME280;51056;50.330;7.914;2023-06-26T09:08:51;100507.00;;;23.57;53.58
64644;BME280;51056;50.330;7.914;2023-06-26T09:11:54;100526.69;;;23.56;53.48
64644;BME280;51056;50.330;7.914;2023-06-26T09:14:58;100525.69;;;23.57;52.47
64644;BME280;51056;50.330;7.914;2023-06-26T09:18:13;100523.38;;;23.62;52.55
64644;BME280;51056;50.330;7.914;2023-06-26T09:21:32;100522.03;;;23.66;51.85
64644;BME280;51056;50.330;7.914;2023-06-26T09:24:36;100530.75;;;23.76;51.39
64644;BME280;51056;50.330;7.914;2023-06-26T09:27:43;100526.09;;;23.78;51.69
64644;BME280;51056;50.330;7.914;2023-06-26T09:30:46;100520.09;;;23.84;50.86
64644;BME280;51056;50.330;7.914;2023-06-26T09:33:59;100527.94;;;23.94;51.90
64644;BME280;51056;50.330;7.914;2023-06-26T09:37:05;100534.13;;;24.03;51.08
64644;BME280;51056;50.330;7.914;2023-06-26T09:40:09;100541.59;;;24.07;46.71
64644;BME280;51056;50.330;7.914;2023-06-26T09:43:13;100537.09;;;24.08;45.66
64644;BME280;51056;50.330;7.914;2023-06-26T09:49:27;100535.44;;;24.07;46.77
64644;BME280;51056;50.330;7.914;2023-06-26T09:52:31;100552.28;;;24.24;48.55
64644;BME280;51056;50.330;7.914;2023-06-26T09:55:36;100554.94;;;24.24;49.29
64644;BME280;51056;50.330;7.914;2023-06-26T09:58:45;100537.25;;;24.14;49.70
64644;BME280;51056;50.330;7.914;2023-06-26T10:01:58;100524.88;;;24.30;49.68
64644;BME280;51056;50.330;7.914;2023-06-26T10:05:02;100530.56;;;24.43;48.98
64644;BME280;51056;50.330;7.914;2023-06-26T10:08:06;100531.88;;;24.47;50.91
64644;BME280;51056;50.330;7.914;2023-06-26T10:11:16;100524.69;;;24.64;51.86
64644;BME280;51056;50.330;7.914;2023-06-26T10:14:21;100525.16;;;24.68;51.53
64644;BME280;51056;50.330;7.914;2023-06-26T10:17:28;100530.66;;;24.82;47.86
64644;BME280;51056;50.330;7.914;2023-06-26T10:20:34;100525.47;;;24.73;46.27
64644;BME280;51056;50.330;7.914;2023-06-26T10:23:39;100522.47;;;24.76;46.56
64644;BME280;51056;50.330;7.914;2023-06-26T10:26:45;100522.50;;;24.68;48.22
64644;BME280;51056;50.330;7.914;2023-06-26T10:30:00;100538.28;;;24.94;48.98
64644;BME280;51056;50.330;7.914;2023-06-26T10:33:09;100532.84;;;24.71;48.16
64644;BME280;51056;50.330;7.914;2023-06-26T10:36:17;100536.34;;;24.79;47.73
64644;BME280;51056;50.330;7.914;2023-06-26T10:39:22;100527.44;;;24.87;48.41
64644;BME280;51056;50.330;7.914;2023-06-26T10:42:37;100541.69;;;24.79;48.40
64644;BME280;51056;50.330;7.914;2023-06-26T10:45:49;100555.97;;;24.95;49.08
64644;BME280;51056;50.330;7.914;2023-06-26T10:49:01;100553.38;;;24.78;49.04
64644;BME280;51056;50.330;7.914;2023-06-26T10:52:11;100553.16;;;24.96;49.03
64644;BME280;51056;50.330;7.914;2023-06-26T10:55:20;100553.28;;;25.03;48.23
64644;BME280;51056;50.330;7.914;2023-06-26T10:58:33;100550.59;;;25.11;48.80
64644;BME280;51056;50.330;7.914;2023-06-26T11:02:16;100556.63;;;25.05;48.98
64644;BME280;51056;50.330;7.914;2023-06-26T11:05:35;100565.75;;;24.79;50.06
64644;BME280;51056;50.330;7.914;2023-06-26T11:08:52;100560.91;;;24.83;50.90
64644;BME280;51056;50.330;7.914;2023-06-26T11:12:02;100559.19;;;24.90;50.09
64644;BME280;51056;50.330;7.914;2023-06-26T11:15:18;100564.09;;;24.70;50.53
64644;BME280;51056;50.330;7.914;2023-06-26T11:18:22;100575.19;;;24.51;50.35
64644;BME280;51056;50.330;7.914;2023-06-26T11:21:27;100577.31;;;24.55;50.38
64644;BME280;51056;50.330;7.914;2023-06-26T11:24:30;100576.66;;;24.53;50.70
64644;BME280;51056;50.330;7.914;2023-06-26T11:27:43;100573.78;;;24.71;50.78
64644;BME280;51056;50.330;7.914;2023-06-26T11:30:47;100585.44;;;24.87;50.98
64644;BME280;51056;50.330;7.914;2023-06-26T11:33:50;100579.81;;;24.65;50.95
64644;BME280;51056;50.330;7.914;2023-06-26T11:36:56;100596.53;;;24.67;49.67
64644;BME280;51056;50.330;7.914;2023-06-26T11:39:59;100590.66;;;24.80;49.03
64644;BME280;51056;50.330;7.914;2023-06-26T11:43:03;100581.41;;;24.91;49.12
64644;BME280;51056;50.330;7.914;2023-06-26T11:46:07;100593.75;;;25.00;48.10
64644;BME280;51056;50.330;7.914;2023-06-26T11:49:10;100597.72;;;25.20;48.11
64644;BME280;51056;50.330;7.914;2023-06-26T11:52:14;100591.88;;;25.56;49.62
64644;BME280;51056;50.330;7.914;2023-06-26T11:55:18;100596.16;;;25.34;46.93
64644;BME280;51056;50.330;7.914;2023-06-26T11:58:21;100592.16;;;25.30;47.63
64644;BME280;51056;50.330;7.914;2023-06-26T12:01:38;100600.63;;;25.42;47.64
64644;BME280;51056;50.330;7.914;2023-06-26T12:04:43;100598.00;;;24.86;47.13
64644;BME280;51056;50.330;7.914;2023-06-26T12:07:48;100601.16;;;24.90;46.78
64644;BME280;51056;50.330;7.914;2023-06-26T12:10:55;100599.78;;;25.02;45.60
64644;BME280;51056;50.330;7.914;2023-06-26T12:14:00;100597.72;;;25.20;45.49
64644;BME280;51056;50.330;7.914;2023-06-26T12:17:12;100594.41;;;25.18;44.71
64644;BME280;51056;50.330;7.914;2023-06-26T12:20:23;100587.78;;;25.37;45.29
64644;BME280;51056;50.330;7.914;2023-06-26T12:23:57;100596.47;;;25.70;45.17
64644;BME280;51056;50.330;7.914;2023-06-26T12:26:58;100600.44;;;25.12;44.34
64644;BME280;51056;50.330;7.914;2023-06-26T12:30:05;100600.28;;;25.45;43.61
64644;BME280;51056;50.330;7.914;2023-06-26T12:33:15;100593.41;;;25.82;43.15
64644;BME280;51056;50.330;7.914;2023-06-26T12:36:23;100599.72;;;25.89;41.37
64644;BME280;51056;50.330;7.914;2023-06-26T12:39:27;100613.44;;;25.23;42.72
64644;BME280;51056;50.330;7.914;2023-06-26T12:43:23;100617.47;;;25.19;43.32
64644;BME280;51056;50.330;7.914;2023-06-26T12:46:36;100608.47;;;25.74;43.02
64644;BME280;51056;50.330;7.914;2023-06-26T12:49:41;100613.44;;;25.63;40.79
64644;BME280;51056;50.330;7.914;2023-06-26T12:52:45;100611.16;;;25.74;41.11
64644;BME280;51056;50.330;7.914;2023-06-26T12:55:48;100603.09;;;26.06;40.37
64644;BME280;51056;50.330;7.914;2023-06-26T12:58:51;100614.38;;;26.01;40.18
64644;BME280;51056;50.330;7.914;2023-06-26T13:01:55;100625.03;;;26.09;39.71
64644;BME280;51056;50.330;7.914;2023-06-26T13:04:58;100611.34;;;26.04;39.62
64644;BME280;51056;50.330;7.914;2023-06-26T13:08:01;100590.97;;;26.18;40.06
64644;BME280;51056;50.330;7.914;2023-06-26T13:11:06;100585.03;;;26.23;38.27
64644;BME280;51056;50.330;7.914;2023-06-26T13:14:09;100578.88;;;26.60;38.84
64644;BME280;51056;50.330;7.914;2023-06-26T13:17:13;100590.72;;;27.10;37.77
64644;BME280;51056;50.330;7.914;2023-06-26T13:20:16;100592.50;;;27.03;37.27
64644;BME280;51056;50.330;7.914;2023-06-26T13:23:20;100602.84;;;26.91;36.72
64644;BME280;51056;50.330;7.914;2023-06-26T13:26:23;100608.31;;;26.68;37.41
64644;BME280;51056;50.330;7.914;2023-06-26T13:29:31;100609.69;;;26.79;37.20
64644;BME280;51056;50.330;7.914;2023-06-26T13:32:36;100621.69;;;26.83;36.37
64644;BME280;51056;50.330;7.914;2023-06-26T13:35:39;100630.75;;;26.67;36.45
64644;BME280;51056;50.330;7.914;2023-06-26T13:38:42;100632.03;;;26.56;36.38
64644;BME280;51056;50.330;7.914;2023-06-26T13:41:46;100652.78;;;26.16;36.76
64644;BME280;51056;50.330;7.914;2023-06-26T13:44:49;100655.34;;;26.33;36.58
64644;BME280;51056;50.330;7.914;2023-06-26T13:47:54;100644.72;;;26.62;37.81
64644;BME280;51056;50.330;7.914;2023-06-26T13:51:01;100630.06;;;27.18;36.20
64644;BME280;51056;50.330;7.914;2023-06-26T13:54:04;100633.00;;;27.52;35.11
64644;BME280;51056;50.330;7.914;2023-06-26T13:57:10;100620.22;;;26.95;34.76
64644;BME280;51056;50.330;7.914;2023-06-26T14:00:15;100624.25;;;27.14;34.21
64644;BME280;51056;50.330;7.914;2023-06-26T14:03:27;100631.59;;;26.67;34.41
64644;BME280;51056;50.330;7.914;2023-06-26T14:06:32;100632.94;;;26.26;35.18
64644;BME280;51056;50.330;7.914;2023-06-26T14:09:38;100653.22;;;25.97;35.47
64644;BME280;51056;50.330;7.914;2023-06-26T14:12:41;100643.03;;;26.24;35.39
64644;BME280;51056;50.330;7.914;2023-06-26T14:15:45;100640.94;;;26.72;34.67
64644;BME280;51056;50.330;7.914;2023-06-26T14:18:49;100651.34;;;26.29;35.20
64644;BME280;51056;50.330;7.914;2023-06-26T14:21:53;100644.97;;;26.30;34.15
64644;BME280;51056;50.330;7.914;2023-06-26T14:24:56;100659.09;;;26.99;34.02
64644;BME280;51056;50.330;7.914;2023-06-26T14:27:59;100662.19;;;27.92;32.39
64644;BME280;51056;50.330;7.914;2023-06-26T14:31:03;100652.31;;;29.19;30.88
64644;BME280;51056;50.330;7.914;2023-06-26T14:34:06;100659.09;;;30.18;28.78
64644;BME280;51056;50.330;7.914;2023-06-26T14:37:10;100658.50;;;30.23;28.10
64644;BME280;51056;50.330;7.914;2023-06-26T14:40:13;100644.72;;;31.76;25.81
64644;BME280;51056;50.330;7.914;2023-06-26T14:43:16;100656.72;;;29.75;27.05
64644;BME280;51056;50.330;7.914;2023-06-26T14:46:20;100646.19;;;31.13;26.69
64644;BME280;51056;50.330;7.914;2023-06-26T14:49:24;100640.03;;;30.66;26.75
64644;BME280;51056;50.330;7.914;2023-06-26T14:52:27;100650.72;;;32.91;24.24
64644;BME280;51056;50.330;7.914;2023-06-26T14:55:31;100641.84;;;34.30;22.47
64644;BME280;51056;50.330;7.914;2023-06-26T14:58:34;100648.44;;;33.80;22.39
64644;BME280;51056;50.330;7.914;2023-06-26T15:01:38;100651.22;;;31.61;25.48
64644;BME280;51056;50.330;7.914;2023-06-26T15:04:42;100661.47;;;32.54;24.07
64644;BME280;51056;50.330;7.914;2023-06-26T15:07:45;100661.34;;;33.96;22.31
64644;BME280;51056;50.330;7.914;2023-06-26T15:10:49;100657.09;;;34.00;21.88
64644;BME280;51056;50.330;7.914;2023-06-26T15:13:52;100652.63;;;35.07;20.61
64644;BME280;51056;50.330;7.914;2023-06-26T15:16:56;100654.78;;;35.57;22.97
64644;BME280;51056;50.330;7.914;2023-06-26T15:20:00;100649.22;;;35.52;21.08
64644;BME280;51056;50.330;7.914;2023-06-26T15:23:05;100651.06;;;34.52;21.12
64644;BME280;51056;50.330;7.914;2023-06-26T15:26:09;100648.56;;;34.15;21.39
64644;BME280;51056;50.330;7.914;2023-06-26T15:29:12;100652.56;;;33.34;22.46
64644;BME280;51056;50.330;7.914;2023-06-26T15:32:17;100648.97;;;30.73;25.11
64644;BME280;51056;50.330;7.914;2023-06-26T15:35:20;100653.75;;;30.65;24.48
64644;BME280;51056;50.330;7.914;2023-06-26T15:38:24;100647.06;;;30.94;25.01
64644;BME280;51056;50.330;7.914;2023-06-26T15:41:28;100662.06;;;30.90;24.52
64644;BME280;51056;50.330;7.914;2023-06-26T15:44:31;100652.81;;;29.91;25.86
64644;BME280;51056;50.330;7.914;2023-06-26T15:48:07;100662.75;;;29.77;25.30
64644;BME280;51056;50.330;7.914;2023-06-26T15:51:13;100666.88;;;28.26;27.41
64644;BME280;51056;50.330;7.914;2023-06-26T15:54:17;100659.38;;;29.62;25.79
64644;BME280;51056;50.330;7.914;2023-06-26T15:57:20;100658.59;;;29.81;25.18
64644;BME280;51056;50.330;7.914;2023-06-26T16:00:23;100675.88;;;29.11;25.66
64644;BME280;51056;50.330;7.914;2023-06-26T16:03:27;100671.75;;;28.16;26.53
64644;BME280;51056;50.330;7.914;2023-06-26T16:06:31;100677.00;;;28.67;26.49
64644;BME280;51056;50.330;7.914;2023-06-26T16:09:34;100679.66;;;27.81;27.57
64644;BME280;51056;50.330;7.914;2023-06-26T16:12:38;100675.09;;;28.18;28.12
64644;BME280;51056;50.330;7.914;2023-06-26T16:15:43;100666.31;;;28.31;28.32
64644;BME280;51056;50.330;7.914;2023-06-26T16:18:46;100668.41;;;28.35;28.10